< < Back
Terminal Aerodrome Forecast


Current Version              Previous Versions:   1  2  3  4  5  6  7  8  9  

Terminal Aerodrome Forecast

559
FTUS44 KMOB 252314 AAA
TAFMOB
TAF AMD
KMOB 252314Z 2523/2618 08009KT P6SM VCTS SCT050CB BKN200
     FM260100 13008KT P6SM VCSH BKN035
     FM260700 14005KT 5SM BR VCSH BKN025
     FM261400 15012KT P6SM VCSH BKN025 PROB30 2614/2618 5SM TSRA
      BKN025CB=



Latest METAR

778
SAUS80 KWBC 252300 CCA
MTRMOB
METAR KMOB 252256Z 08009KT 10SM SCT050 BKN200 24/22 A3009 RMK AO2 LTG
DSNT S AND SW TSE01 SLP187 T02440217 $


USA.gov is the U.S. government's official web portal to all federal, state and local government web resources and services.